createdAt,value
2018-09-06T00:02:16.734Z,14.10
2018-09-06T00:04:47.199Z,14.10
2018-09-06T00:07:17.716Z,14.00
2018-09-06T00:09:48.053Z,13.90
2018-09-06T00:12:21.022Z,13.90
2018-09-06T00:14:52.294Z,13.80
2018-09-06T00:17:22.409Z,13.70
2018-09-06T00:19:57.692Z,13.70
2018-09-06T00:25:12.928Z,13.80
2018-09-06T00:27:47.216Z,13.90
2018-09-06T00:33:35.900Z,14.10
2018-09-06T00:36:09.570Z,14.30
2018-09-06T00:38:41.770Z,14.30
2018-09-06T00:41:17.573Z,14.40
2018-09-06T00:43:54.777Z,14.40
2018-09-06T00:46:25.964Z,14.40
2018-09-06T00:48:57.034Z,14.50
2018-09-06T00:51:28.671Z,14.60
2018-09-06T00:54:00.800Z,14.60
2018-09-06T00:56:31.759Z,14.60
2018-09-06T00:59:03.342Z,14.50
2018-09-06T01:01:34.159Z,14.50
2018-09-06T01:04:05.320Z,14.40
2018-09-06T01:06:37.785Z,14.40
2018-09-06T01:09:11.265Z,14.40
2018-09-06T01:11:42.544Z,14.50
2018-09-06T01:14:13.164Z,14.50
2018-09-06T01:16:46.555Z,14.40
2018-09-06T01:19:17.085Z,14.40
2018-09-06T01:21:48.320Z,14.50
2018-09-06T01:24:19.379Z,14.40
2018-09-06T01:26:52.447Z,14.40
2018-09-06T01:29:22.891Z,14.30
2018-09-06T01:31:55.612Z,14.30
2018-09-06T01:34:27.103Z,14.30
2018-09-06T01:36:57.643Z,14.30
2018-09-06T01:39:30.371Z,14.30
2018-09-06T01:42:01.195Z,14.30
2018-09-06T01:44:34.135Z,14.40
2018-09-06T01:47:06.412Z,14.40
2018-09-06T02:46:41.471Z,14.30
2018-09-06T02:54:39.996Z,14.10
2018-09-06T02:57:11.629Z,14.10
2018-09-06T02:59:52.173Z,14.10
2018-09-06T03:02:32.475Z,14.20
2018-09-06T03:05:04.353Z,14.20
2018-09-06T03:07:54.115Z,14.20
2018-09-06T03:10:31.097Z,14.20
2018-09-06T03:13:10.303Z,14.20
2018-09-06T03:15:46.208Z,14.20
2018-09-06T03:18:17.469Z,14.40
2018-09-06T03:20:50.293Z,14.50
2018-09-06T03:23:26.492Z,14.60
2018-09-06T03:26:12.617Z,14.60
2018-09-06T03:31:29.423Z,14.70
2018-09-06T03:48:31.262Z,14.70
2018-09-06T03:51:09.592Z,14.80
2018-09-06T03:53:40.190Z,14.80
2018-09-06T03:56:10.627Z,14.90
2018-09-06T03:58:52.519Z,14.90
2018-09-06T04:01:32.995Z,14.90
2018-09-06T04:04:08.203Z,14.90
2018-09-06T04:06:45.868Z,14.70
2018-09-06T04:09:36.028Z,14.80
2018-09-06T04:15:22.130Z,14.80
2018-09-06T04:18:09.764Z,14.80
2018-09-06T04:21:00.445Z,14.70
2018-09-06T04:26:12.048Z,14.60
2018-09-06T04:28:48.914Z,14.60
2018-09-06T04:31:40.150Z,14.60
2018-09-06T04:34:24.908Z,14.50
2018-09-06T04:40:34.872Z,14.50
2018-09-06T04:43:09.229Z,14.40
2018-09-06T04:46:03.176Z,14.40
2018-09-06T04:52:50.074Z,14.60
2018-09-06T04:56:08.211Z,14.70
2018-09-06T04:59:24.158Z,14.80
2018-09-06T05:02:00.136Z,14.80
2018-09-06T05:04:50.052Z,14.80
2018-09-06T05:07:30.094Z,14.80
2018-09-06T05:10:09.821Z,14.80
2018-09-06T05:12:45.015Z,14.80
2018-09-06T05:15:22.099Z,14.90
2018-09-06T05:17:59.949Z,14.90
2018-09-06T05:23:34.226Z,15.00
2018-09-06T05:26:07.140Z,15.20
2018-09-06T05:28:56.285Z,15.40
2018-09-06T05:34:36.828Z,15.40
2018-09-06T05:40:02.488Z,15.70
2018-09-06T05:42:37.587Z,15.80
2018-09-06T05:48:28.044Z,16.10
2018-09-06T05:51:19.730Z,16.20
2018-09-06T05:54:01.252Z,16.30
2018-09-06T05:56:37.775Z,16.60
2018-09-06T05:59:15.397Z,16.60
2018-09-06T06:02:03.935Z,16.90
2018-09-06T06:04:54.603Z,17.10
2018-09-06T06:13:29.931Z,17.80
2018-09-06T06:26:16.676Z,19.80
2018-09-06T06:33:23.009Z,20.00
2018-09-06T06:55:23.118Z,22.90
2018-09-06T06:58:03.058Z,23.20
2018-09-06T07:03:26.972Z,25.20
2018-09-06T07:06:16.100Z,25.20
2018-09-06T07:08:55.212Z,25.00
2018-09-06T07:11:26.809Z,24.60
2018-09-06T07:17:28.429Z,23.70
2018-09-06T07:20:02.011Z,23.50
2018-09-06T07:22:33.319Z,24.30
2018-09-06T07:25:14.368Z,25.40
2018-09-06T07:27:48.869Z,25.30
2018-09-06T07:30:21.920Z,25.40
2018-09-06T07:32:56.818Z,25.00
2018-09-06T07:35:32.971Z,24.30
2018-09-06T07:38:03.662Z,23.80
2018-09-06T07:40:34.537Z,23.60
2018-09-06T07:43:05.401Z,23.30
2018-09-06T07:45:36.276Z,23.40
2018-09-06T07:48:07.832Z,23.60
2018-09-06T07:50:38.035Z,23.90
2018-09-06T07:53:14.358Z,24.20
2018-09-06T07:55:44.862Z,25.00
2018-09-06T07:58:15.723Z,24.60
2018-09-06T08:00:46.607Z,24.10
2018-09-06T08:03:17.809Z,23.80
2018-09-06T08:05:49.059Z,23.60
2018-09-06T08:08:18.520Z,23.80
2018-09-06T08:10:48.447Z,24.10
2018-09-06T08:13:18.968Z,24.30
2018-09-06T08:15:50.116Z,24.60
2018-09-06T08:18:20.720Z,24.60
2018-09-06T08:20:51.534Z,24.40
2018-09-06T08:23:21.765Z,24.50
2018-09-06T08:25:52.323Z,24.40
2018-09-06T08:28:23.527Z,25.30
2018-09-06T08:30:54.999Z,25.40
2018-09-06T08:33:25.966Z,25.60
2018-09-06T08:35:57.036Z,25.20
2018-09-06T08:38:27.042Z,25.00
2018-09-06T08:40:58.666Z,26.30
2018-09-06T08:43:29.641Z,28.30
2018-09-06T08:46:02.380Z,30.30
2018-09-06T08:48:33.275Z,32.00
2018-09-06T08:51:03.797Z,32.80
2018-09-06T08:53:34.765Z,33.50
2018-09-06T08:56:05.184Z,34.50
2018-09-06T08:58:35.835Z,34.90
2018-09-06T09:01:11.044Z,34.90
2018-09-06T09:03:41.561Z,34.20
2018-09-06T09:06:13.460Z,34.60
2018-09-06T09:08:44.442Z,34.30
2018-09-06T09:11:15.220Z,35.50
2018-09-06T09:13:47.092Z,35.30
2018-09-06T09:16:17.969Z,36.20
2018-09-06T09:18:49.898Z,36.40
2018-09-06T09:21:28.890Z,36.30
2018-09-06T09:23:59.708Z,36.20
2018-09-06T09:26:30.573Z,36.60
2018-09-06T09:29:00.799Z,36.00
2018-09-06T09:31:33.184Z,36.30
2018-09-06T09:34:03.479Z,36.30
2018-09-06T09:36:35.397Z,36.50
2018-09-06T09:39:07.270Z,36.70
2018-09-06T09:41:37.886Z,36.70
2018-09-06T09:44:09.067Z,37.20
2018-09-06T09:49:08.459Z,36.30
2018-09-06T09:51:39.340Z,37.30
2018-09-06T09:54:10.224Z,35.80
2018-09-06T09:56:41.105Z,36.50
2018-09-06T09:59:11.976Z,36.70
2018-09-06T10:01:48.042Z,36.80
2018-09-06T10:04:23.767Z,36.90
2018-09-06T10:06:59.793Z,37.30
2018-09-06T10:09:30.646Z,36.80
2018-09-06T10:12:01.536Z,36.70
2018-09-06T10:14:31.671Z,36.70
2018-09-06T10:17:02.286Z,36.60
2018-09-06T10:19:33.152Z,36.00
2018-09-06T10:22:04.025Z,35.20
2018-09-06T10:24:35.205Z,34.90
2018-09-06T10:27:05.735Z,35.80
2018-09-06T10:29:36.956Z,35.80
2018-09-06T10:32:06.721Z,35.70
2018-09-06T10:34:36.659Z,36.00
2018-09-06T10:37:07.643Z,36.20
2018-09-06T10:39:38.913Z,36.60
2018-09-06T10:42:09.225Z,37.20
2018-09-06T10:44:39.900Z,36.80
2018-09-06T10:47:10.137Z,37.10
2018-09-06T10:49:40.635Z,36.60
2018-09-06T10:52:10.800Z,36.90
2018-09-06T10:54:41.380Z,36.90
2018-09-06T10:57:12.457Z,36.40
2018-09-06T10:59:43.420Z,35.40
2018-09-06T11:02:13.380Z,34.90
2018-09-06T11:04:43.855Z,35.10
2018-09-06T11:07:14.025Z,35.10
2018-09-06T11:09:44.608Z,36.10
2018-09-06T11:12:14.776Z,36.00
2018-09-06T11:14:45.339Z,35.80
2018-09-06T11:17:15.571Z,35.40
2018-09-06T11:19:46.084Z,35.40
2018-09-06T11:22:16.509Z,34.80
2018-09-06T11:24:47.133Z,35.30
2018-09-06T11:27:18.124Z,35.20
2018-09-06T11:29:48.784Z,35.20
2018-09-06T11:32:19.763Z,35.30
2018-09-06T11:34:50.644Z,35.20
2018-09-06T11:37:21.212Z,34.90
2018-09-06T11:39:52.089Z,35.50
2018-09-06T11:42:23.080Z,35.30
2018-09-06T11:44:53.141Z,35.00
2018-09-06T11:47:23.114Z,35.00
2018-09-06T11:49:54.897Z,34.20
2018-09-06T11:52:25.494Z,34.40
2018-09-06T11:54:56.574Z,34.50
2018-09-06T11:57:26.547Z,35.10
2018-09-06T11:59:57.101Z,34.80
2018-09-06T12:02:27.244Z,34.20
2018-09-06T12:04:57.847Z,34.30
2018-09-06T12:07:29.024Z,34.20
2018-09-06T12:09:59.971Z,33.90
2018-09-06T12:12:30.787Z,34.00
2018-09-06T12:15:01.534Z,34.10
2018-09-06T12:17:32.525Z,33.50
2018-09-06T12:20:02.393Z,33.90
2018-09-06T12:22:32.249Z,34.00
2018-09-06T12:25:02.110Z,34.10
2018-09-06T12:27:32.838Z,34.40
2018-09-06T12:30:03.484Z,33.40
2018-09-06T12:32:33.755Z,32.80
2018-09-06T12:35:04.315Z,32.10
2018-09-06T12:37:35.190Z,32.30
2018-09-06T12:40:06.313Z,32.40
2018-09-06T12:42:36.938Z,32.80
2018-09-06T12:45:07.820Z,31.20
2018-09-06T12:47:38.957Z,30.50
2018-09-06T12:50:09.564Z,30.50
2018-09-06T12:52:40.453Z,30.80
2018-09-06T12:55:10.623Z,32.10
2018-09-06T12:57:41.194Z,32.30
2018-09-06T13:00:12.178Z,33.00
2018-09-06T13:02:43.034Z,33.10
2018-09-06T13:05:14.096Z,33.00
2018-09-06T13:07:44.680Z,32.90
2018-09-06T13:10:14.927Z,32.30
2018-09-06T13:12:45.900Z,32.30
2018-09-06T13:15:16.296Z,31.40
2018-09-06T13:17:47.164Z,31.30
2018-09-06T13:20:17.350Z,31.20
2018-09-06T13:22:47.912Z,30.90
2018-09-06T13:25:18.092Z,30.50
2018-09-06T13:27:48.668Z,30.60
2018-09-06T13:30:18.824Z,30.70
2018-09-06T13:32:48.708Z,30.80
2018-09-06T13:35:19.410Z,31.00
2018-09-06T13:37:49.436Z,30.30
2018-09-06T13:40:19.334Z,29.90
2018-09-06T13:42:49.901Z,30.00
2018-09-06T13:45:20.106Z,29.50
2018-09-06T13:47:50.648Z,29.10
2018-09-06T13:50:20.892Z,29.40
2018-09-06T13:52:51.405Z,29.40
2018-09-06T13:55:21.581Z,29.40
2018-09-06T13:57:52.124Z,29.10
2018-09-06T14:00:22.324Z,28.60
2018-09-06T14:02:52.887Z,28.40
2018-09-06T14:05:23.038Z,28.20
2018-09-06T14:07:53.755Z,28.30
2018-09-06T14:10:24.803Z,28.20
2018-09-06T14:12:54.694Z,28.10
2018-09-06T14:15:25.233Z,28.00
2018-09-06T14:17:55.372Z,27.60
2018-09-06T14:20:26.101Z,27.30
2018-09-06T14:22:57.173Z,26.80
2018-09-06T14:25:27.024Z,26.30
2018-09-06T14:27:56.867Z,26.10
2018-09-06T14:30:26.721Z,26.00
2018-09-06T14:32:57.595Z,26.20
2018-09-06T14:35:28.189Z,26.40
2018-09-06T14:37:59.088Z,26.60
2018-09-06T14:40:29.948Z,26.50
2018-09-06T14:43:00.095Z,26.50
2018-09-06T14:45:31.464Z,26.30
2018-09-06T14:48:01.555Z,26.20
2018-09-06T14:50:31.736Z,26.10
2018-09-06T14:53:02.479Z,26.20
2018-09-06T14:55:32.499Z,26.30
2018-09-06T14:58:03.121Z,26.20
2018-09-06T15:00:33.183Z,26.20
2018-09-06T15:03:03.081Z,26.00
2018-09-06T15:05:33.604Z,25.60
2018-09-06T15:08:03.847Z,25.50
2018-09-06T15:10:34.479Z,25.30
2018-09-06T15:13:05.487Z,25.40
2018-09-06T15:15:36.185Z,25.30
2018-09-06T15:18:06.287Z,25.20
2018-09-06T15:20:37.063Z,25.10
2018-09-06T15:23:07.699Z,25.00
2018-09-06T15:25:38.879Z,24.80
2018-09-06T15:28:09.627Z,24.40
2018-09-06T15:30:40.631Z,24.20
2018-09-06T15:33:11.207Z,24.10
2018-09-06T15:35:41.368Z,24.00
2018-09-06T15:38:11.220Z,24.10
2018-09-06T15:40:41.053Z,24.10
2018-09-06T15:43:11.654Z,23.90
2018-09-06T15:45:41.791Z,23.80
2018-09-06T15:48:12.677Z,23.40
2018-09-06T15:50:43.249Z,23.30
2018-09-06T15:53:13.393Z,23.20
2018-09-06T15:55:44.168Z,23.00
2018-09-06T15:58:15.038Z,22.80
2018-09-06T16:00:46.325Z,22.40
2018-09-06T16:03:16.611Z,22.30
2018-09-06T16:05:46.761Z,22.10
2018-09-06T16:08:17.344Z,22.00
2018-09-06T16:10:47.491Z,22.00
2018-09-06T16:13:18.037Z,22.00
2018-09-06T16:15:48.189Z,21.90
2018-09-06T16:18:17.818Z,21.80
2018-09-06T16:20:47.791Z,21.60
2018-09-06T16:25:52.718Z,21.30
2018-09-06T16:28:23.517Z,21.20
2018-09-06T16:30:53.435Z,21.10
2018-09-06T16:33:23.261Z,21.00
2018-09-06T16:35:53.123Z,20.90
2018-09-06T16:38:24.983Z,20.70
2018-09-06T16:40:54.871Z,20.60
2018-09-06T16:43:24.725Z,20.50
2018-09-06T16:45:55.367Z,20.30
2018-09-06T16:48:25.451Z,20.30
2018-09-06T16:50:56.288Z,20.10
2018-09-06T16:53:26.208Z,20.10
2018-09-06T16:55:56.092Z,20.00
2018-09-06T16:58:25.936Z,19.90
2018-09-06T17:00:56.517Z,19.80
2018-09-06T17:03:26.681Z,19.70
2018-09-06T17:05:57.235Z,19.70
2018-09-06T17:08:27.430Z,19.50
2018-09-06T17:10:57.249Z,19.50
2018-09-06T17:13:27.987Z,19.40
2018-09-06T17:15:58.005Z,19.20
2018-09-06T17:18:28.739Z,19.10
2018-09-06T17:20:59.727Z,19.00
2018-09-06T17:23:29.587Z,18.90
2018-09-06T17:25:59.479Z,18.80
2018-09-06T17:28:30.051Z,18.70
2018-09-06T17:31:00.201Z,18.60
2018-09-06T17:33:30.899Z,18.50
2018-09-06T17:36:00.947Z,18.40
2018-09-06T17:38:31.507Z,18.40
2018-09-06T17:41:01.671Z,18.30
2018-09-06T17:43:32.419Z,18.30
2018-09-06T17:46:03.119Z,18.20
2018-09-06T17:48:33.276Z,18.00
2018-09-06T17:51:05.169Z,18.00
2018-09-06T17:53:35.942Z,18.00
2018-09-06T17:56:09.541Z,18.00
2018-09-06T17:58:39.819Z,17.90
2018-09-06T18:01:45.841Z,17.90
2018-09-06T18:04:16.881Z,17.90
2018-09-06T18:06:47.568Z,17.80
2018-09-06T18:09:17.683Z,17.80
2018-09-06T18:11:47.580Z,17.80
2018-09-06T18:14:18.182Z,17.80
2018-09-06T18:16:48.352Z,17.80
2018-09-06T18:19:18.233Z,17.70
2018-09-06T18:21:48.790Z,17.70
2018-09-06T18:24:18.969Z,17.70
2018-09-06T18:26:49.771Z,17.70
2018-09-06T18:29:19.696Z,17.70
2018-09-06T18:31:49.683Z,17.70
2018-09-06T18:34:20.143Z,17.70
2018-09-06T18:36:50.301Z,17.60
2018-09-06T18:39:20.157Z,17.60
2018-09-06T18:41:50.033Z,17.50
2018-09-06T18:44:19.879Z,17.50
2018-09-06T18:46:49.647Z,17.50
2018-09-06T18:49:20.499Z,17.50
2018-09-06T18:51:50.122Z,17.40
2018-09-06T18:54:18.963Z,17.50
2018-09-06T18:56:47.931Z,17.40
2018-09-06T18:59:17.040Z,17.40
2018-09-06T19:01:45.759Z,17.40
2018-09-06T19:04:15.082Z,17.40
2018-09-06T19:06:44.364Z,17.30
2018-09-06T19:09:14.140Z,17.30
2018-09-06T19:11:43.367Z,17.40
2018-09-06T19:14:14.131Z,17.30
2018-09-06T19:16:43.876Z,17.30
2018-09-06T19:19:13.828Z,17.20
2018-09-06T19:21:43.756Z,17.20
2018-09-06T19:24:13.304Z,17.20
2018-09-06T19:26:42.551Z,17.20
2018-09-06T19:29:12.276Z,17.20
2018-09-06T19:31:42.311Z,17.10
2018-09-06T19:34:12.147Z,17.10
2018-09-06T19:36:41.975Z,17.10
2018-09-06T19:39:12.904Z,17.20
2018-09-06T19:41:42.800Z,17.10
2018-09-06T19:44:12.479Z,17.10
2018-09-06T19:46:41.976Z,17.10
2018-09-06T19:49:11.190Z,17.20
2018-09-06T19:51:41.103Z,17.10
2018-09-06T19:54:10.780Z,17.20
2018-09-06T19:56:40.789Z,17.20
2018-09-06T19:59:09.387Z,17.40
2018-09-06T20:01:38.140Z,17.40
2018-09-06T20:04:07.476Z,17.50
2018-09-06T20:06:36.088Z,17.50
2018-09-06T20:09:06.158Z,17.50
2018-09-06T20:11:36.773Z,17.60
2018-09-06T20:14:06.883Z,17.60
2018-09-06T20:16:36.798Z,17.60
2018-09-06T20:19:07.534Z,17.50
2018-09-06T20:21:38.764Z,17.60
2018-09-06T20:24:08.372Z,17.60
2018-09-06T20:26:38.091Z,17.60
2018-09-06T20:29:07.083Z,17.60
2018-09-06T20:31:36.839Z,17.60
2018-09-06T20:34:07.746Z,17.60
2018-09-06T20:36:36.662Z,17.60
2018-09-06T20:39:07.448Z,17.60
2018-09-06T20:41:37.365Z,17.60
2018-09-06T20:44:06.960Z,17.70
2018-09-06T20:46:37.068Z,17.60
2018-09-06T20:49:07.865Z,17.60
2018-09-06T20:51:38.744Z,17.70
2018-09-06T20:54:09.448Z,17.60
2018-09-06T20:56:38.306Z,17.60
2018-09-06T20:59:07.369Z,17.60
2018-09-06T21:01:37.199Z,17.60
2018-09-06T21:04:06.368Z,17.60
2018-09-06T21:06:35.229Z,17.60
2018-09-06T21:09:05.174Z,17.60
2018-09-06T21:11:34.513Z,17.60
2018-09-06T21:14:04.356Z,17.60
2018-09-06T21:16:34.111Z,17.50
2018-09-06T21:19:03.837Z,17.60
2018-09-06T21:21:32.780Z,17.60
2018-09-06T21:24:02.784Z,17.60
2018-09-06T21:26:33.231Z,17.50
2018-09-06T21:29:04.795Z,17.50
2018-09-06T21:31:35.366Z,17.50
2018-09-06T21:34:04.347Z,17.60
2018-09-06T21:36:35.382Z,17.60
2018-09-06T21:39:08.493Z,17.70
2018-09-06T21:41:38.210Z,17.60
2018-09-06T21:44:07.764Z,17.70
2018-09-06T21:46:37.448Z,17.60
2018-09-06T21:49:08.363Z,17.60
2018-09-06T21:51:38.191Z,17.60
2018-09-06T21:54:07.133Z,17.50
2018-09-06T21:56:37.628Z,17.40
2018-09-06T21:59:07.843Z,17.40
2018-09-06T22:01:37.455Z,17.40
2018-09-06T22:04:07.884Z,17.30
2018-09-06T22:06:38.324Z,17.30
2018-09-06T22:09:10.675Z,17.20
2018-09-06T22:11:41.076Z,17.20
2018-09-06T22:14:11.491Z,17.10
2018-09-06T22:16:41.009Z,17.00
2018-09-06T22:19:11.237Z,17.00
2018-09-06T22:21:40.893Z,16.80
2018-09-06T22:24:09.971Z,16.80
2018-09-06T22:26:40.029Z,16.70
2018-09-06T22:29:09.808Z,16.70
2018-09-06T22:31:39.558Z,16.70
2018-09-06T22:34:08.912Z,16.60
2018-09-06T22:36:38.345Z,16.60
2018-09-06T22:39:10.763Z,16.60
2018-09-06T22:41:41.200Z,16.60
2018-09-06T22:44:10.756Z,16.60
2018-09-06T22:46:40.138Z,16.60
2018-09-06T22:49:09.579Z,16.60
2018-09-06T22:51:39.022Z,16.60
2018-09-06T22:54:08.447Z,16.60
2018-09-06T22:56:37.880Z,16.60
2018-09-06T22:59:08.024Z,16.60
2018-09-06T23:01:38.495Z,16.60
2018-09-06T23:04:09.163Z,16.50
2018-09-06T23:06:38.623Z,16.50
2018-09-06T23:09:09.075Z,16.40
2018-09-06T23:11:39.454Z,16.30
2018-09-06T23:14:08.923Z,16.20
2018-09-06T23:16:38.358Z,16.20
2018-09-06T23:19:08.803Z,16.20
2018-09-06T23:21:38.971Z,16.20
2018-09-06T23:24:08.299Z,16.20
2018-09-06T23:26:37.781Z,16.20
2018-09-06T23:29:07.551Z,16.10
2018-09-06T23:31:36.976Z,16.00
2018-09-06T23:34:06.403Z,16.00
2018-09-06T23:36:35.537Z,16.00
2018-09-06T23:39:06.235Z,16.00
2018-09-06T23:41:35.734Z,16.00
2018-09-06T23:44:05.166Z,16.00
2018-09-06T23:46:34.596Z,16.00
2018-09-06T23:49:04.031Z,16.00
2018-09-06T23:51:34.200Z,15.90
2018-09-06T23:54:03.911Z,15.90
2018-09-06T23:56:34.087Z,15.80
2018-09-06T23:59:02.899Z,15.70
